sensor_id;sensor_type;location;lat;lon;timestamp;P1;durP1;ratioP1;P2;durP2;ratioP2
37379;SDS011;23252;-33.992;18.480;2023-04-03T00:00:33;8.97;;;1.97;;
37379;SDS011;23252;-33.992;18.480;2023-04-03T00:03:00;10.15;;;2.03;;
37379;SDS011;23252;-33.992;18.480;2023-04-03T00:05:26;10.38;;;1.98;;
37379;SDS011;23252;-33.992;18.480;2023-04-03T00:07:53;12.60;;;2.05;;
37379;SDS011;23252;-33.992;18.480;2023-04-03T00:10:20;11.95;;;1.55;;
37379;SDS011;23252;-33.992;18.480;2023-04-03T00:12:47;12.48;;;2.00;;
37379;SDS011;23252;-33.992;18.480;2023-04-03T00:15:13;12.20;;;2.33;;
37379;SDS011;23252;-33.992;18.480;2023-04-03T00:17:40;11.18;;;2.00;;
37379;SDS011;23252;-33.992;18.480;2023-04-03T00:20:07;11.07;;;1.53;;
37379;SDS011;23252;-33.992;18.480;2023-04-03T00:22:33;10.43;;;2.28;;
37379;SDS011;23252;-33.992;18.480;2023-04-03T00:25:00;12.15;;;1.98;;
37379;SDS011;23252;-33.992;18.480;2023-04-03T00:27:26;9.57;;;1.70;;
37379;SDS011;23252;-33.992;18.480;2023-04-03T00:29:53;6.25;;;1.30;;
37379;SDS011;23252;-33.992;18.480;2023-04-03T00:32:19;8.47;;;1.50;;
37379;SDS011;23252;-33.992;18.480;2023-04-03T00:34:46;8.33;;;1.37;;
37379;SDS011;23252;-33.992;18.480;2023-04-03T00:37:12;9.85;;;1.30;;
37379;SDS011;23252;-33.992;18.480;2023-04-03T00:39:39;11.15;;;1.60;;
37379;SDS011;23252;-33.992;18.480;2023-04-03T00:42:06;11.43;;;1.98;;
37379;SDS011;23252;-33.992;18.480;2023-04-03T00:46:59;6.93;;;1.40;;
37379;SDS011;23252;-33.992;18.480;2023-04-03T00:49:27;8.45;;;1.42;;
37379;SDS011;23252;-33.992;18.480;2023-04-03T00:51:54;8.05;;;1.25;;
37379;SDS011;23252;-33.992;18.480;2023-04-03T00:54:22;9.80;;;1.50;;
37379;SDS011;23252;-33.992;18.480;2023-04-03T00:56:50;6.97;;;1.60;;
37379;SDS011;23252;-33.992;18.480;2023-04-03T00:59:20;8.68;;;1.88;;
37379;SDS011;23252;-33.992;18.480;2023-04-03T01:01:52;9.90;;;1.80;;
37379;SDS011;23252;-33.992;18.480;2023-04-03T01:06:53;10.80;;;1.70;;
37379;SDS011;23252;-33.992;18.480;2023-04-03T01:09:23;6.97;;;1.00;;
37379;SDS011;23252;-33.992;18.480;2023-04-03T01:11:49;7.63;;;1.00;;
37379;SDS011;23252;-33.992;18.480;2023-04-03T01:14:16;6.13;;;1.20;;
37379;SDS011;23252;-33.992;18.480;2023-04-03T01:16:42;12.07;;;1.80;;
37379;SDS011;23252;-33.992;18.480;2023-04-03T01:19:17;3.83;;;1.08;;
37379;SDS011;23252;-33.992;18.480;2023-04-03T01:24:35;8.80;;;1.83;;
37379;SDS011;23252;-33.992;18.480;2023-04-03T01:27:06;7.18;;;1.02;;
37379;SDS011;23252;-33.992;18.480;2023-04-03T01:29:35;7.28;;;1.10;;
37379;SDS011;23252;-33.992;18.480;2023-04-03T01:34:29;5.28;;;1.00;;
37379;SDS011;23252;-33.992;18.480;2023-04-03T01:36:56;8.98;;;1.35;;
37379;SDS011;23252;-33.992;18.480;2023-04-03T01:39:23;5.43;;;1.15;;
37379;SDS011;23252;-33.992;18.480;2023-04-03T01:41:50;10.30;;;1.00;;
37379;SDS011;23252;-33.992;18.480;2023-04-03T01:44:17;5.78;;;0.95;;
37379;SDS011;23252;-33.992;18.480;2023-04-03T01:46:43;14.18;;;1.27;;
37379;SDS011;23252;-33.992;18.480;2023-04-03T01:49:10;10.23;;;1.15;;
37379;SDS011;23252;-33.992;18.480;2023-04-03T01:51:36;7.55;;;1.30;;
37379;SDS011;23252;-33.992;18.480;2023-04-03T01:54:03;7.93;;;1.00;;
37379;SDS011;23252;-33.992;18.480;2023-04-03T01:56:30;5.18;;;0.93;;
37379;SDS011;23252;-33.992;18.480;2023-04-03T01:58:56;7.25;;;0.90;;
37379;SDS011;23252;-33.992;18.480;2023-04-03T02:01:23;6.28;;;1.17;;
37379;SDS011;23252;-33.992;18.480;2023-04-03T02:03:51;4.85;;;0.82;;
37379;SDS011;23252;-33.992;18.480;2023-04-03T02:06:17;3.07;;;0.90;;
37379;SDS011;23252;-33.992;18.480;2023-04-03T02:08:44;9.07;;;1.10;;
37379;SDS011;23252;-33.992;18.480;2023-04-03T02:11:10;4.67;;;1.03;;
37379;SDS011;23252;-33.992;18.480;2023-04-03T02:13:36;9.40;;;1.30;;
37379;SDS011;23252;-33.992;18.480;2023-04-03T04:13:21;3.60;;;0.80;;
37379;SDS011;23252;-33.992;18.480;2023-04-03T04:15:48;8.35;;;1.08;;
37379;SDS011;23252;-33.992;18.480;2023-04-03T04:18:14;4.40;;;0.90;;
37379;SDS011;23252;-33.992;18.480;2023-04-03T04:20:41;7.65;;;1.58;;
37379;SDS011;23252;-33.992;18.480;2023-04-03T04:23:08;2.47;;;0.80;;
37379;SDS011;23252;-33.992;18.480;2023-04-03T04:25:34;3.53;;;0.88;;
37379;SDS011;23252;-33.992;18.480;2023-04-03T04:28:01;5.53;;;0.90;;
37379;SDS011;23252;-33.992;18.480;2023-04-03T04:30:28;3.72;;;0.88;;
37379;SDS011;23252;-33.992;18.480;2023-04-03T04:32:54;4.53;;;1.20;;
37379;SDS011;23252;-33.992;18.480;2023-04-03T04:35:21;4.43;;;1.20;;
37379;SDS011;23252;-33.992;18.480;2023-04-03T04:37:47;6.47;;;1.83;;
37379;SDS011;23252;-33.992;18.480;2023-04-03T04:40:14;3.80;;;0.80;;
37379;SDS011;23252;-33.992;18.480;2023-04-03T04:42:40;4.50;;;0.90;;
37379;SDS011;23252;-33.992;18.480;2023-04-03T04:45:07;6.40;;;1.20;;
37379;SDS011;23252;-33.992;18.480;2023-04-03T04:47:33;7.22;;;1.40;;
37379;SDS011;23252;-33.992;18.480;2023-04-03T04:50:00;5.75;;;1.00;;
37379;SDS011;23252;-33.992;18.480;2023-04-03T04:52:27;5.87;;;1.00;;
37379;SDS011;23252;-33.992;18.480;2023-04-03T04:54:53;3.20;;;0.77;;
37379;SDS011;23252;-33.992;18.480;2023-04-03T04:57:20;5.23;;;1.00;;
37379;SDS011;23252;-33.992;18.480;2023-04-03T04:59:46;5.38;;;1.10;;
37379;SDS011;23252;-33.992;18.480;2023-04-03T05:02:13;4.83;;;1.10;;
37379;SDS011;23252;-33.992;18.480;2023-04-03T05:04:39;5.40;;;1.17;;
37379;SDS011;23252;-33.992;18.480;2023-04-03T05:07:06;5.40;;;0.82;;
37379;SDS011;23252;-33.992;18.480;2023-04-03T05:09:33;3.28;;;1.05;;
37379;SDS011;23252;-33.992;18.480;2023-04-03T05:11:59;9.98;;;1.08;;
37379;SDS011;23252;-33.992;18.480;2023-04-03T05:14:27;6.68;;;1.00;;
37379;SDS011;23252;-33.992;18.480;2023-04-03T05:16:53;10.38;;;1.30;;
37379;SDS011;23252;-33.992;18.480;2023-04-03T05:19:20;3.92;;;1.00;;
37379;SDS011;23252;-33.992;18.480;2023-04-03T05:21:47;1.98;;;0.50;;
37379;SDS011;23252;-33.992;18.480;2023-04-03T05:24:14;6.60;;;1.52;;
37379;SDS011;23252;-33.992;18.480;2023-04-03T05:26:41;10.43;;;1.40;;
37379;SDS011;23252;-33.992;18.480;2023-04-03T05:31:35;4.95;;;1.75;;
37379;SDS011;23252;-33.992;18.480;2023-04-03T05:34:02;8.13;;;1.73;;
37379;SDS011;23252;-33.992;18.480;2023-04-03T05:36:28;5.40;;;2.38;;
37379;SDS011;23252;-33.992;18.480;2023-04-03T05:38:55;8.00;;;2.15;;
37379;SDS011;23252;-33.992;18.480;2023-04-03T05:41:22;7.05;;;2.38;;
37379;SDS011;23252;-33.992;18.480;2023-04-03T05:43:49;6.47;;;1.95;;
37379;SDS011;23252;-33.992;18.480;2023-04-03T05:46:17;8.07;;;2.10;;
37379;SDS011;23252;-33.992;18.480;2023-04-03T05:48:45;11.20;;;2.25;;
37379;SDS011;23252;-33.992;18.480;2023-04-03T05:51:16;5.60;;;1.80;;
37379;SDS011;23252;-33.992;18.480;2023-04-03T05:53:45;5.18;;;1.92;;
37379;SDS011;23252;-33.992;18.480;2023-04-03T05:56:13;9.15;;;2.00;;
37379;SDS011;23252;-33.992;18.480;2023-04-03T05:58:39;8.38;;;2.25;;
37379;SDS011;23252;-33.992;18.480;2023-04-03T06:01:06;8.77;;;2.33;;
37379;SDS011;23252;-33.992;18.480;2023-04-03T06:03:33;10.43;;;2.38;;
37379;SDS011;23252;-33.992;18.480;2023-04-03T06:06:01;13.07;;;2.88;;
37379;SDS011;23252;-33.992;18.480;2023-04-03T06:08:29;5.68;;;1.20;;
37379;SDS011;23252;-33.992;18.480;2023-04-03T06:10:55;5.85;;;1.40;;
37379;SDS011;23252;-33.992;18.480;2023-04-03T06:13:22;5.30;;;0.90;;
37379;SDS011;23252;-33.992;18.480;2023-04-03T06:15:49;10.05;;;1.58;;
37379;SDS011;23252;-33.992;18.480;2023-04-03T06:18:15;4.53;;;0.85;;
37379;SDS011;23252;-33.992;18.480;2023-04-03T06:20:42;5.55;;;0.90;;
37379;SDS011;23252;-33.992;18.480;2023-04-03T06:23:08;5.38;;;0.68;;
37379;SDS011;23252;-33.992;18.480;2023-04-03T06:25:37;4.18;;;0.70;;
37379;SDS011;23252;-33.992;18.480;2023-04-03T06:28:04;4.50;;;0.70;;
37379;SDS011;23252;-33.992;18.480;2023-04-03T06:30:30;4.07;;;0.80;;
37379;SDS011;23252;-33.992;18.480;2023-04-03T06:32:57;4.85;;;0.90;;
37379;SDS011;23252;-33.992;18.480;2023-04-03T06:35:24;3.25;;;0.47;;
37379;SDS011;23252;-33.992;18.480;2023-04-03T06:37:52;2.55;;;0.60;;
37379;SDS011;23252;-33.992;18.480;2023-04-03T06:40:19;4.37;;;0.60;;
37379;SDS011;23252;-33.992;18.480;2023-04-03T06:42:48;4.35;;;0.65;;
37379;SDS011;23252;-33.992;18.480;2023-04-03T06:45:15;5.32;;;0.65;;
37379;SDS011;23252;-33.992;18.480;2023-04-03T06:47:42;5.85;;;0.80;;
37379;SDS011;23252;-33.992;18.480;2023-04-03T06:50:09;4.43;;;1.00;;
37379;SDS011;23252;-33.992;18.480;2023-04-03T06:52:39;5.97;;;1.10;;
37379;SDS011;23252;-33.992;18.480;2023-04-03T06:57:33;6.10;;;1.02;;
37379;SDS011;23252;-33.992;18.480;2023-04-03T07:00:00;4.97;;;0.70;;
37379;SDS011;23252;-33.992;18.480;2023-04-03T07:02:28;2.17;;;0.63;;
37379;SDS011;23252;-33.992;18.480;2023-04-03T07:04:55;5.25;;;1.17;;
37379;SDS011;23252;-33.992;18.480;2023-04-03T07:07:21;0.98;;;0.55;;
37379;SDS011;23252;-33.992;18.480;2023-04-03T07:09:48;0.93;;;0.50;;
37379;SDS011;23252;-33.992;18.480;2023-04-03T07:12:15;4.93;;;0.95;;
37379;SDS011;23252;-33.992;18.480;2023-04-03T07:14:41;2.95;;;0.82;;
37379;SDS011;23252;-33.992;18.480;2023-04-03T07:17:09;1.13;;;0.60;;
37379;SDS011;23252;-33.992;18.480;2023-04-03T07:19:35;2.47;;;0.70;;
37379;SDS011;23252;-33.992;18.480;2023-04-03T07:22:02;0.90;;;0.40;;
37379;SDS011;23252;-33.992;18.480;2023-04-03T07:24:28;4.17;;;0.50;;
37379;SDS011;23252;-33.992;18.480;2023-04-03T07:26:55;3.30;;;0.68;;
37379;SDS011;23252;-33.992;18.480;2023-04-03T07:29:21;0.55;;;0.30;;
37379;SDS011;23252;-33.992;18.480;2023-04-03T07:31:48;3.10;;;0.50;;
37379;SDS011;23252;-33.992;18.480;2023-04-03T07:34:14;1.67;;;0.30;;
37379;SDS011;23252;-33.992;18.480;2023-04-03T07:36:41;1.43;;;0.30;;
37379;SDS011;23252;-33.992;18.480;2023-04-03T07:39:08;0.73;;;0.52;;
37379;SDS011;23252;-33.992;18.480;2023-04-03T07:41:34;1.95;;;0.63;;
37379;SDS011;23252;-33.992;18.480;2023-04-03T07:44:01;1.57;;;0.47;;
37379;SDS011;23252;-33.992;18.480;2023-04-03T07:46:27;0.30;;;0.20;;
37379;SDS011;23252;-33.992;18.480;2023-04-03T07:48:54;1.40;;;0.40;;
37379;SDS011;23252;-33.992;18.480;2023-04-03T07:51:20;1.90;;;0.60;;
37379;SDS011;23252;-33.992;18.480;2023-04-03T07:53:47;3.17;;;0.50;;
37379;SDS011;23252;-33.992;18.480;2023-04-03T07:56:13;3.22;;;0.65;;
37379;SDS011;23252;-33.992;18.480;2023-04-03T07:58:40;2.00;;;0.60;;
37379;SDS011;23252;-33.992;18.480;2023-04-03T08:01:06;1.93;;;0.53;;
37379;SDS011;23252;-33.992;18.480;2023-04-03T08:03:33;2.67;;;0.57;;
37379;SDS011;23252;-33.992;18.480;2023-04-03T08:06:04;7.15;;;1.38;;
37379;SDS011;23252;-33.992;18.480;2023-04-03T08:08:32;6.25;;;1.00;;
37379;SDS011;23252;-33.992;18.480;2023-04-03T08:10:59;5.85;;;0.90;;
37379;SDS011;23252;-33.992;18.480;2023-04-03T08:13:28;4.80;;;1.20;;
37379;SDS011;23252;-33.992;18.480;2023-04-03T08:15:56;2.08;;;0.45;;
37379;SDS011;23252;-33.992;18.480;2023-04-03T08:18:24;3.17;;;0.60;;
37379;SDS011;23252;-33.992;18.480;2023-04-03T08:20:51;2.22;;;0.52;;
37379;SDS011;23252;-33.992;18.480;2023-04-03T08:23:18;5.55;;;0.98;;
37379;SDS011;23252;-33.992;18.480;2023-04-03T08:25:45;4.93;;;0.65;;
37379;SDS011;23252;-33.992;18.480;2023-04-03T08:28:12;1.77;;;0.70;;
37379;SDS011;23252;-33.992;18.480;2023-04-03T08:30:41;3.63;;;0.80;;
37379;SDS011;23252;-33.992;18.480;2023-04-03T08:33:08;3.40;;;0.40;;
37379;SDS011;23252;-33.992;18.480;2023-04-03T08:35:39;4.78;;;0.65;;
37379;SDS011;23252;-33.992;18.480;2023-04-03T08:38:06;2.38;;;0.63;;
37379;SDS011;23252;-33.992;18.480;2023-04-03T08:40:33;6.90;;;1.30;;
37379;SDS011;23252;-33.992;18.480;2023-04-03T08:45:50;4.75;;;0.77;;
37379;SDS011;23252;-33.992;18.480;2023-04-03T08:48:20;7.97;;;0.70;;
37379;SDS011;23252;-33.992;18.480;2023-04-03T08:51:20;1.52;;;0.38;;
37379;SDS011;23252;-33.992;18.480;2023-04-03T08:53:53;5.35;;;0.63;;
37379;SDS011;23252;-33.992;18.480;2023-04-03T08:56:24;4.68;;;1.15;;
37379;SDS011;23252;-33.992;18.480;2023-04-03T08:58:59;2.80;;;0.60;;
37379;SDS011;23252;-33.992;18.480;2023-04-03T09:01:36;5.55;;;1.13;;
37379;SDS011;23252;-33.992;18.480;2023-04-03T09:04:13;4.10;;;1.15;;
37379;SDS011;23252;-33.992;18.480;2023-04-03T09:06:44;3.85;;;1.10;;
37379;SDS011;23252;-33.992;18.480;2023-04-03T09:09:21;3.85;;;0.57;;
37379;SDS011;23252;-33.992;18.480;2023-04-03T09:21:08;4.05;;;1.55;;
37379;SDS011;23252;-33.992;18.480;2023-04-03T09:23:50;5.05;;;1.90;;
37379;SDS011;23252;-33.992;18.480;2023-04-03T09:26:21;8.63;;;3.60;;
37379;SDS011;23252;-33.992;18.480;2023-04-03T09:28:58;4.78;;;2.03;;
37379;SDS011;23252;-33.992;18.480;2023-04-03T09:31:29;3.30;;;1.48;;
37379;SDS011;23252;-33.992;18.480;2023-04-03T09:34:27;5.88;;;0.73;;
37379;SDS011;23252;-33.992;18.480;2023-04-03T09:36:54;4.55;;;1.80;;
37379;SDS011;23252;-33.992;18.480;2023-04-03T09:39:52;3.60;;;0.77;;
37379;SDS011;23252;-33.992;18.480;2023-04-03T09:42:24;5.50;;;0.85;;
37379;SDS011;23252;-33.992;18.480;2023-04-03T09:44:59;5.63;;;1.25;;
37379;SDS011;23252;-33.992;18.480;2023-04-03T09:47:30;3.42;;;0.60;;
37379;SDS011;23252;-33.992;18.480;2023-04-03T09:52:46;2.50;;;0.65;;
37379;SDS011;23252;-33.992;18.480;2023-04-03T09:55:21;2.55;;;0.63;;
37379;SDS011;23252;-33.992;18.480;2023-04-03T09:58:00;2.75;;;0.40;;
37379;SDS011;23252;-33.992;18.480;2023-04-03T10:00:36;5.43;;;1.10;;
37379;SDS011;23252;-33.992;18.480;2023-04-03T10:03:05;4.63;;;0.60;;
37379;SDS011;23252;-33.992;18.480;2023-04-03T10:05:51;9.40;;;0.77;;
37379;SDS011;23252;-33.992;18.480;2023-04-03T10:08:33;3.67;;;0.63;;
37379;SDS011;23252;-33.992;18.480;2023-04-03T10:13:36;7.25;;;1.20;;
37379;SDS011;23252;-33.992;18.480;2023-04-03T10:16:17;2.97;;;0.63;;
37379;SDS011;23252;-33.992;18.480;2023-04-03T10:19:05;2.92;;;0.50;;
37379;SDS011;23252;-33.992;18.480;2023-04-03T10:24:32;4.07;;;0.88;;
37379;SDS011;23252;-33.992;18.480;2023-04-03T10:27:10;5.68;;;0.50;;
37379;SDS011;23252;-33.992;18.480;2023-04-03T10:32:51;7.00;;;0.60;;
37379;SDS011;23252;-33.992;18.480;2023-04-03T10:41:35;4.90;;;0.52;;
37379;SDS011;23252;-33.992;18.480;2023-04-03T10:44:25;5.10;;;0.75;;
37379;SDS011;23252;-33.992;18.480;2023-04-03T10:47:06;4.10;;;0.50;;
37379;SDS011;23252;-33.992;18.480;2023-04-03T10:57:56;3.35;;;0.82;;
37379;SDS011;23252;-33.992;18.480;2023-04-03T11:00:47;4.95;;;0.70;;
37379;SDS011;23252;-33.992;18.480;2023-04-03T11:03:24;2.28;;;0.57;;
37379;SDS011;23252;-33.992;18.480;2023-04-03T11:06:01;5.00;;;0.60;;
37379;SDS011;23252;-33.992;18.480;2023-04-03T11:08:50;6.28;;;0.60;;
37379;SDS011;23252;-33.992;18.480;2023-04-03T11:11:24;3.42;;;0.55;;
37379;SDS011;23252;-33.992;18.480;2023-04-03T11:14:05;4.60;;;0.85;;
37379;SDS011;23252;-33.992;18.480;2023-04-03T11:17:38;6.97;;;1.27;;
37379;SDS011;23252;-33.992;18.480;2023-04-03T11:25:33;2.58;;;0.43;;
37379;SDS011;23252;-33.992;18.480;2023-04-03T11:28:06;4.50;;;0.70;;
37379;SDS011;23252;-33.992;18.480;2023-04-03T11:30:46;3.38;;;0.50;;
37379;SDS011;23252;-33.992;18.480;2023-04-03T11:35:44;1.33;;;0.30;;
37379;SDS011;23252;-33.992;18.480;2023-04-03T11:38:18;1.95;;;0.28;;
37379;SDS011;23252;-33.992;18.480;2023-04-03T11:40:52;2.08;;;0.50;;
37379;SDS011;23252;-33.992;18.480;2023-04-03T11:43:22;1.52;;;0.70;;
37379;SDS011;23252;-33.992;18.480;2023-04-03T11:46:04;4.05;;;0.57;;
37379;SDS011;23252;-33.992;18.480;2023-04-03T11:53:43;2.83;;;0.60;;
37379;SDS011;23252;-33.992;18.480;2023-04-03T12:01:43;2.40;;;0.40;;
37379;SDS011;23252;-33.992;18.480;2023-04-03T12:04:12;3.00;;;0.60;;
37379;SDS011;23252;-33.992;18.480;2023-04-03T12:11:55;4.68;;;0.95;;
37379;SDS011;23252;-33.992;18.480;2023-04-03T12:14:23;8.10;;;0.85;;
37379;SDS011;23252;-33.992;18.480;2023-04-03T12:16:52;6.70;;;0.70;;
37379;SDS011;23252;-33.992;18.480;2023-04-03T12:19:38;4.95;;;0.88;;
37379;SDS011;23252;-33.992;18.480;2023-04-03T12:22:11;4.47;;;0.70;;
37379;SDS011;23252;-33.992;18.480;2023-04-03T12:24:40;5.25;;;0.73;;
37379;SDS011;23252;-33.992;18.480;2023-04-03T12:29:59;4.38;;;0.60;;
37379;SDS011;23252;-33.992;18.480;2023-04-03T12:46:20;3.35;;;0.43;;
37379;SDS011;23252;-33.992;18.480;2023-04-03T12:53:51;6.45;;;0.82;;
37379;SDS011;23252;-33.992;18.480;2023-04-03T12:56:27;5.00;;;0.80;;
37379;SDS011;23252;-33.992;18.480;2023-04-03T12:59:12;2.80;;;0.70;;
37379;SDS011;23252;-33.992;18.480;2023-04-03T13:01:41;2.95;;;0.43;;
37379;SDS011;23252;-33.992;18.480;2023-04-03T13:04:09;3.28;;;0.60;;
37379;SDS011;23252;-33.992;18.480;2023-04-03T13:06:41;3.42;;;0.35;;
37379;SDS011;23252;-33.992;18.480;2023-04-03T13:09:22;5.05;;;0.70;;
37379;SDS011;23252;-33.992;18.480;2023-04-03T13:11:58;7.38;;;0.70;;
37379;SDS011;23252;-33.992;18.480;2023-04-03T13:14:34;2.47;;;0.40;;
37379;SDS011;23252;-33.992;18.480;2023-04-03T13:17:14;2.42;;;0.50;;
37379;SDS011;23252;-33.992;18.480;2023-04-03T13:19:42;3.00;;;0.47;;
37379;SDS011;23252;-33.992;18.480;2023-04-03T13:25:09;5.95;;;0.73;;
37379;SDS011;23252;-33.992;18.480;2023-04-03T13:27:40;3.85;;;0.43;;
37379;SDS011;23252;-33.992;18.480;2023-04-03T13:30:23;1.55;;;0.57;;
37379;SDS011;23252;-33.992;18.480;2023-04-03T13:32:56;1.63;;;0.40;;
37379;SDS011;23252;-33.992;18.480;2023-04-03T13:35:36;5.25;;;0.85;;
37379;SDS011;23252;-33.992;18.480;2023-04-03T13:38:06;3.67;;;0.50;;
37379;SDS011;23252;-33.992;18.480;2023-04-03T13:40:33;6.43;;;0.70;;
37379;SDS011;23252;-33.992;18.480;2023-04-03T13:43:22;1.75;;;0.45;;
37379;SDS011;23252;-33.992;18.480;2023-04-03T13:45:59;1.77;;;0.43;;
37379;SDS011;23252;-33.992;18.480;2023-04-03T13:48:36;4.28;;;0.55;;
37379;SDS011;23252;-33.992;18.480;2023-04-03T13:51:07;4.18;;;0.45;;
37379;SDS011;23252;-33.992;18.480;2023-04-03T13:53:56;2.30;;;0.43;;
37379;SDS011;23252;-33.992;18.480;2023-04-03T14:01:34;1.27;;;0.30;;
37379;SDS011;23252;-33.992;18.480;2023-04-03T14:04:14;2.13;;;0.40;;
37379;SDS011;23252;-33.992;18.480;2023-04-03T14:06:46;3.92;;;0.45;;
37379;SDS011;23252;-33.992;18.480;2023-04-03T14:09:14;3.33;;;0.57;;
37379;SDS011;23252;-33.992;18.480;2023-04-03T14:11:42;3.92;;;0.57;;
37379;SDS011;23252;-33.992;18.480;2023-04-03T14:14:11;3.08;;;0.40;;
37379;SDS011;23252;-33.992;18.480;2023-04-03T14:19:16;4.03;;;0.60;;
37379;SDS011;23252;-33.992;18.480;2023-04-03T14:21:45;2.05;;;0.30;;
37379;SDS011;23252;-33.992;18.480;2023-04-03T14:24:12;1.70;;;0.40;;
37379;SDS011;23252;-33.992;18.480;2023-04-03T14:26:38;2.45;;;0.40;;
37379;SDS011;23252;-33.992;18.480;2023-04-03T14:29:06;2.17;;;0.40;;
37379;SDS011;23252;-33.992;18.480;2023-04-03T14:31:35;2.33;;;0.40;;
37379;SDS011;23252;-33.992;18.480;2023-04-03T14:34:02;1.13;;;0.28;;
37379;SDS011;23252;-33.992;18.480;2023-04-03T14:36:29;2.95;;;0.93;;
37379;SDS011;23252;-33.992;18.480;2023-04-03T14:38:58;4.13;;;0.80;;
37379;SDS011;23252;-33.992;18.480;2023-04-03T14:41:26;3.13;;;0.63;;
37379;SDS011;23252;-33.992;18.480;2023-04-03T14:43:53;4.57;;;0.57;;
37379;SDS011;23252;-33.992;18.480;2023-04-03T14:48:52;4.30;;;0.52;;
37379;SDS011;23252;-33.992;18.480;2023-04-03T14:51:52;3.75;;;0.65;;
37379;SDS011;23252;-33.992;18.480;2023-04-03T14:54:16;1.33;;;0.57;;
37379;SDS011;23252;-33.992;18.480;2023-04-03T14:56:44;3.25;;;0.60;;
37379;SDS011;23252;-33.992;18.480;2023-04-03T14:59:12;3.70;;;0.60;;
37379;SDS011;23252;-33.992;18.480;2023-04-03T15:01:40;3.78;;;0.82;;
37379;SDS011;23252;-33.992;18.480;2023-04-03T15:04:17;2.80;;;0.40;;
37379;SDS011;23252;-33.992;18.480;2023-04-03T15:06:45;2.05;;;0.45;;
37379;SDS011;23252;-33.992;18.480;2023-04-03T15:09:23;3.60;;;0.60;;
37379;SDS011;23252;-33.992;18.480;2023-04-03T15:11:52;2.53;;;0.50;;
37379;SDS011;23252;-33.992;18.480;2023-04-03T15:14:20;4.65;;;1.02;;
37379;SDS011;23252;-33.992;18.480;2023-04-03T15:16:48;2.30;;;0.50;;
37379;SDS011;23252;-33.992;18.480;2023-04-03T15:21:40;5.63;;;0.73;;
37379;SDS011;23252;-33.992;18.480;2023-04-03T15:24:08;2.55;;;0.40;;
37379;SDS011;23252;-33.992;18.480;2023-04-03T15:26:35;3.05;;;0.50;;
37379;SDS011;23252;-33.992;18.480;2023-04-03T15:29:03;2.83;;;0.60;;
37379;SDS011;23252;-33.992;18.480;2023-04-03T15:31:30;4.45;;;0.80;;
37379;SDS011;23252;-33.992;18.480;2023-04-03T15:33:57;3.67;;;0.80;;
37379;SDS011;23252;-33.992;18.480;2023-04-03T15:36:33;4.07;;;0.82;;
37379;SDS011;23252;-33.992;18.480;2023-04-03T15:39:00;5.63;;;1.20;;
37379;SDS011;23252;-33.992;18.480;2023-04-03T15:41:26;4.55;;;0.60;;
37379;SDS011;23252;-33.992;18.480;2023-04-03T15:43:53;4.45;;;1.15;;
37379;SDS011;23252;-33.992;18.480;2023-04-03T15:46:20;4.65;;;1.00;;
37379;SDS011;23252;-33.992;18.480;2023-04-03T15:48:46;5.00;;;0.57;;
37379;SDS011;23252;-33.992;18.480;2023-04-03T15:51:14;6.22;;;0.70;;
37379;SDS011;23252;-33.992;18.480;2023-04-03T15:53:41;3.92;;;0.55;;
37379;SDS011;23252;-33.992;18.480;2023-04-03T15:56:10;1.08;;;0.50;;
37379;SDS011;23252;-33.992;18.480;2023-04-03T15:58:37;2.53;;;0.88;;
37379;SDS011;23252;-33.992;18.480;2023-04-03T16:01:04;2.95;;;0.82;;
37379;SDS011;23252;-33.992;18.480;2023-04-03T16:03:31;2.60;;;0.88;;
37379;SDS011;23252;-33.992;18.480;2023-04-03T16:05:58;4.43;;;0.98;;
37379;SDS011;23252;-33.992;18.480;2023-04-03T16:08:26;7.30;;;1.00;;
37379;SDS011;23252;-33.992;18.480;2023-04-03T16:10:53;4.97;;;0.90;;
37379;SDS011;23252;-33.992;18.480;2023-04-03T16:13:19;3.92;;;0.80;;
37379;SDS011;23252;-33.992;18.480;2023-04-03T16:15:46;5.95;;;0.80;;
37379;SDS011;23252;-33.992;18.480;2023-04-03T16:18:14;9.57;;;1.35;;
37379;SDS011;23252;-33.992;18.480;2023-04-03T16:20:40;6.15;;;1.13;;
37379;SDS011;23252;-33.992;18.480;2023-04-03T16:23:08;5.25;;;1.40;;
37379;SDS011;23252;-33.992;18.480;2023-04-03T16:25:35;3.47;;;1.98;;
37379;SDS011;23252;-33.992;18.480;2023-04-03T16:28:02;3.63;;;1.40;;
37379;SDS011;23252;-33.992;18.480;2023-04-03T16:30:29;8.88;;;2.50;;
37379;SDS011;23252;-33.992;18.480;2023-04-03T16:32:56;6.18;;;2.85;;
37379;SDS011;23252;-33.992;18.480;2023-04-03T16:35:22;7.88;;;2.47;;
37379;SDS011;23252;-33.992;18.480;2023-04-03T16:37:49;7.93;;;1.90;;
37379;SDS011;23252;-33.992;18.480;2023-04-03T16:40:15;10.93;;;3.50;;
37379;SDS011;23252;-33.992;18.480;2023-04-03T16:42:42;15.38;;;4.53;;
37379;SDS011;23252;-33.992;18.480;2023-04-03T16:45:09;13.30;;;3.78;;
37379;SDS011;23252;-33.992;18.480;2023-04-03T16:50:05;13.87;;;3.73;;
37379;SDS011;23252;-33.992;18.480;2023-04-03T16:52:32;10.50;;;3.28;;
37379;SDS011;23252;-33.992;18.480;2023-04-03T16:54:59;13.00;;;3.40;;
37379;SDS011;23252;-33.992;18.480;2023-04-03T16:57:25;10.32;;;3.40;;
37379;SDS011;23252;-33.992;18.480;2023-04-03T16:59:52;12.27;;;3.50;;
37379;SDS011;23252;-33.992;18.480;2023-04-03T17:02:20;14.40;;;4.72;;
37379;SDS011;23252;-33.992;18.480;2023-04-03T17:04:50;17.95;;;4.10;;
37379;SDS011;23252;-33.992;18.480;2023-04-03T17:07:18;13.40;;;3.80;;
37379;SDS011;23252;-33.992;18.480;2023-04-03T17:09:45;11.57;;;4.22;;
37379;SDS011;23252;-33.992;18.480;2023-04-03T17:12:13;15.02;;;3.90;;
37379;SDS011;23252;-33.992;18.480;2023-04-03T17:14:40;13.30;;;3.63;;
37379;SDS011;23252;-33.992;18.480;2023-04-03T17:17:06;13.10;;;3.55;;
37379;SDS011;23252;-33.992;18.480;2023-04-03T17:19:34;21.38;;;4.28;;
37379;SDS011;23252;-33.992;18.480;2023-04-03T17:22:02;15.18;;;3.85;;
37379;SDS011;23252;-33.992;18.480;2023-04-03T17:24:34;12.40;;;3.40;;
37379;SDS011;23252;-33.992;18.480;2023-04-03T17:27:01;16.70;;;4.32;;
37379;SDS011;23252;-33.992;18.480;2023-04-03T17:31:54;11.43;;;3.35;;
37379;SDS011;23252;-33.992;18.480;2023-04-03T17:34:21;13.02;;;3.85;;
37379;SDS011;23252;-33.992;18.480;2023-04-03T17:36:53;12.57;;;3.55;;
37379;SDS011;23252;-33.992;18.480;2023-04-03T17:39:20;9.48;;;3.35;;
37379;SDS011;23252;-33.992;18.480;2023-04-03T17:41:46;10.18;;;2.75;;
37379;SDS011;23252;-33.992;18.480;2023-04-03T17:44:13;15.80;;;2.90;;
37379;SDS011;23252;-33.992;18.480;2023-04-03T17:46:40;14.90;;;4.07;;
37379;SDS011;23252;-33.992;18.480;2023-04-03T17:49:09;15.07;;;3.50;;
37379;SDS011;23252;-33.992;18.480;2023-04-03T17:51:39;11.05;;;3.35;;
37379;SDS011;23252;-33.992;18.480;2023-04-03T17:54:07;9.55;;;3.03;;
37379;SDS011;23252;-33.992;18.480;2023-04-03T17:59:00;12.40;;;4.32;;
37379;SDS011;23252;-33.992;18.480;2023-04-03T18:01:33;17.70;;;3.53;;
37379;SDS011;23252;-33.992;18.480;2023-04-03T18:04:01;13.95;;;3.50;;
37379;SDS011;23252;-33.992;18.480;2023-04-03T18:06:30;15.15;;;3.50;;
37379;SDS011;23252;-33.992;18.480;2023-04-03T18:09:10;16.63;;;3.63;;
37379;SDS011;23252;-33.992;18.480;2023-04-03T18:11:41;11.77;;;3.35;;
37379;SDS011;23252;-33.992;18.480;2023-04-03T20:13:43;12.10;;;3.33;;
37379;SDS011;23252;-33.992;18.480;2023-04-03T20:16:13;10.55;;;3.25;;
37379;SDS011;23252;-33.992;18.480;2023-04-03T20:18:39;10.65;;;3.75;;
37379;SDS011;23252;-33.992;18.480;2023-04-03T20:21:06;10.55;;;3.42;;
37379;SDS011;23252;-33.992;18.480;2023-04-03T20:23:34;11.23;;;3.20;;
37379;SDS011;23252;-33.992;18.480;2023-04-03T20:26:02;10.32;;;3.00;;
37379;SDS011;23252;-33.992;18.480;2023-04-03T20:28:30;14.73;;;3.45;;
37379;SDS011;23252;-33.992;18.480;2023-04-03T20:30:58;8.15;;;2.53;;